Time;durP1;ratioP1;P1;durP2;ratioP2;P2;SDS_P1;SDS_P2;PMS_P1;PMS_P2;Temp;Humidity;BMP_temperature;BMP_pressure;BME280_temperature;BME280_humidity;BME280_pressure;Samples;Min_cycle;Max_cycle;Signal;HPM_P1;HPM_P2
2021/01/01 00:01:36;;;;;;;12.65;10.85;;;22.00;31.30;;;;;;5052779;28;20305;-49
2021/01/01 00:04:02;;;;;;;10.60;9.48;;;22.10;32.00;;;;;;5050734;28;20033;-51
2021/01/01 00:06:29;;;;;;;12.25;10.30;;;22.00;31.30;;;;;;5031670;28;20051;-49
2021/01/01 00:08:55;;;;;;;10.48;9.48;;;22.00;31.30;;;;;;5052044;28;20033;-50
2021/01/01 00:11:22;;;;;;;12.70;9.77;;;22.00;31.30;;;;;;5052480;28;20432;-50
2021/01/01 00:13:47;;;;;;;12.55;10.43;;;22.00;31.30;;;;;;5051846;28;20032;-53
2021/01/01 00:16:14;;;;;;;10.93;9.05;;;22.00;31.30;;;;;;5052469;28;20079;-49
2021/01/01 00:18:40;;;;;;;11.35;9.82;;;22.00;31.30;;;;;;5050091;28;20057;-54
2021/01/01 00:21:06;;;;;;;10.88;9.18;;;22.00;31.40;;;;;;5050159;28;20106;-53
2021/01/01 00:23:33;;;;;;;10.70;9.45;;;22.00;31.30;;;;;;5033461;28;20053;-52
2021/01/01 00:25:59;;;;;;;10.88;9.23;;;22.00;31.30;;;;;;5052505;28;20035;-48
2021/01/01 00:28:25;;;;;;;10.15;9.05;;;22.00;31.40;;;;;;5051453;28;20116;-47
2021/01/01 00:30:51;;;;;;;10.05;8.90;;;21.90;31.30;;;;;;5052148;28;20079;-55
2021/01/01 00:33:17;;;;;;;10.32;9.23;;;22.00;32.00;;;;;;5049629;28;20041;-49
2021/01/01 00:35:42;;;;;;;10.68;8.75;;;22.00;31.40;;;;;;5049463;28;20518;-49
2021/01/01 00:38:08;;;;;;;8.57;7.70;;;21.90;31.30;;;;;;5051344;28;20040;-50
2021/01/01 00:40:34;;;;;;;10.20;8.43;;;21.90;31.30;;;;;;5031049;28;20076;-54
2021/01/01 00:43:00;;;;;;;10.65;8.93;;;21.90;31.30;;;;;;5051829;28;20033;-53
2021/01/01 00:45:26;;;;;;;10.38;9.20;;;21.90;31.30;;;;;;5048629;28;20044;-51
2021/01/01 00:47:51;;;;;;;9.80;8.30;;;21.90;31.30;;;;;;5050620;28;20029;-51
2021/01/01 00:50:17;;;;;;;9.00;8.05;;;21.90;31.30;;;;;;5046282;28;20048;-52
2021/01/01 00:52:43;;;;;;;10.48;9.38;;;21.90;31.30;;;;;;5055618;28;20041;-53
2021/01/01 00:55:09;;;;;;;10.30;8.63;;;21.90;31.30;;;;;;5055108;28;20115;-55
2021/01/01 00:57:35;;;;;;;9.93;8.93;;;21.90;31.30;;;;;;5055472;28;20033;-48
2021/01/01 01:00:03;;;;;;;9.35;8.40;;;21.90;31.30;;;;;;5037324;28;20040;-51
2021/01/01 01:02:29;;;;;;;10.32;9.18;;;21.90;31.30;;;;;;5055663;28;20055;-52
2021/01/01 01:04:55;;;;;;;10.98;9.02;;;21.90;31.30;;;;;;5049821;28;20026;-50
2021/01/01 01:07:20;;;;;;;11.15;9.80;;;21.80;31.30;;;;;;5054737;28;20162;-55
2021/01/01 01:09:46;;;;;;;11.40;10.20;;;21.80;31.30;;;;;;5053212;28;20428;-47
2021/01/01 01:12:12;;;;;;;11.27;10.07;;;21.80;31.30;;;;;;5055077;28;20029;-55
2021/01/01 01:14:38;;;;;;;13.93;11.40;;;21.80;31.30;;;;;;5051989;28;20036;-48
2021/01/01 01:17:06;;;;;;;11.40;10.15;;;21.80;31.30;;;;;;5055603;28;20025;-49
2021/01/01 01:19:32;;;;;;;12.50;10.75;;;21.80;31.30;;;;;;5049868;28;20025;-47
2021/01/01 01:21:57;;;;;;;12.80;10.55;;;21.80;31.50;;;;;;5055069;28;20063;-47
2021/01/01 01:24:23;;;;;;;12.93;11.55;;;21.80;31.50;;;;;;5051210;28;20437;-53
2021/01/01 01:26:49;;;;;;;13.70;11.35;;;21.80;31.40;;;;;;5055597;28;20060;-49
2021/01/01 01:29:15;;;;;;;13.15;11.27;;;21.80;31.40;;;;;;5053336;28;20087;-55
2021/01/01 01:31:40;;;;;;;14.65;11.82;;;21.80;31.30;;;;;;5055145;28;20025;-52
2021/01/01 01:34:06;;;;;;;13.65;11.90;;;21.70;31.20;;;;;;5053707;28;20060;-50
2021/01/01 01:36:32;;;;;;;12.98;11.45;;;21.70;31.20;;;;;;5037184;28;20029;-50
2021/01/01 01:38:58;;;;;;;13.20;11.48;;;21.70;31.20;;;;;;5052296;28;20142;-53
2021/01/01 01:41:24;;;;;;;13.68;12.10;;;21.70;31.20;;;;;;5054973;28;20119;-54
2021/01/01 01:43:49;;;;;;;13.02;11.57;;;21.70;31.20;;;;;;5051989;28;20039;-49
2021/01/01 01:46:15;;;;;;;12.82;11.38;;;21.70;31.20;;;;;;5054937;28;20036;-51
2021/01/01 01:48:43;;;;;;;12.65;11.23;;;21.70;31.20;;;;;;5053973;28;20052;-54
2021/01/01 01:51:09;;;;;;;13.60;11.85;;;21.70;31.80;;;;;;5054927;28;20078;-52
2021/01/01 01:53:46;;;;;;;12.45;10.75;;;21.70;31.10;;;;;;5052426;28;20044;-49
2021/01/01 01:56:12;;;;;;;14.43;11.43;;;21.70;31.10;;;;;;5054418;28;20029;-52
2021/01/01 01:58:40;;;;;;;13.48;11.85;;;21.70;31.40;;;;;;5054016;28;20039;-51
2021/01/01 02:01:06;;;;;;;12.77;11.05;;;21.70;31.10;;;;;;5053583;28;20056;-55
2021/01/01 02:03:33;;;;;;;14.55;12.30;;;21.70;31.10;;;;;;5050429;28;20456;-53
2021/01/01 02:06:00;;;;;;;13.05;11.35;;;21.70;31.10;;;;;;5053600;28;20087;-52
2021/01/01 02:08:27;;;;;;;14.07;12.15;;;21.70;31.10;;;;;;5052849;28;20032;-49
2021/01/01 02:10:55;;;;;;;14.55;12.00;;;21.60;31.10;;;;;;5054673;28;20347;-50
2021/01/01 02:13:22;;;;;;;12.63;11.30;;;21.70;31.20;;;;;;5053204;28;20025;-48
2021/01/01 02:15:48;;;;;;;13.73;11.55;;;21.60;31.10;;;;;;5054338;28;20033;-52
2021/01/01 02:18:35;;;;;;;13.45;12.05;;;21.60;31.20;;;;;;5053172;28;20044;-52
2021/01/01 02:21:02;;;;;;;14.88;12.05;;;21.60;31.20;;;;;;5051870;28;20044;-48
2021/01/01 02:23:28;;;;;;;14.23;12.05;;;21.60;31.20;;;;;;5052651;28;20419;-51
2021/01/01 02:25:55;;;;;;;13.30;11.60;;;21.60;31.20;;;;;;5052622;28;20025;-47
2021/01/01 02:28:21;;;;;;;15.05;12.60;;;21.60;31.30;;;;;;5053495;28;20344;-51
2021/01/01 02:30:46;;;;;;;13.38;11.98;;;21.60;31.40;;;;;;5053372;28;20043;-54
2021/01/01 02:33:12;;;;;;;14.63;12.63;;;21.60;31.40;;;;;;5052957;28;20029;-50
2021/01/01 02:35:38;;;;;;;14.18;12.30;;;21.60;31.40;;;;;;5050789;28;20033;-49
2021/01/01 02:38:04;;;;;;;13.50;12.10;;;21.60;31.30;;;;;;5052610;28;20029;-53
2021/01/01 02:40:30;;;;;;;14.18;12.70;;;21.50;31.30;;;;;;5054088;28;20033;-48
2021/01/01 02:42:55;;;;;;;14.05;12.55;;;21.50;31.30;;;;;;5053044;28;20029;-51
2021/01/01 02:45:21;;;;;;;14.20;12.55;;;21.50;31.30;;;;;;5051681;28;20025;-50
2021/01/01 02:47:47;;;;;;;13.93;12.35;;;21.50;31.30;;;;;;5048879;28;20047;-52
2021/01/01 02:50:13;;;;;;;13.48;11.77;;;21.50;31.20;;;;;;5053747;28;20086;-50
2021/01/01 02:52:39;;;;;;;13.52;11.82;;;21.50;31.30;;;;;;5052020;28;20028;-50
2021/01/01 02:55:06;;;;;;;14.45;12.48;;;21.50;31.30;;;;;;5053492;28;20032;-54
2021/01/01 02:57:31;;;;;;;13.20;11.68;;;21.50;31.30;;;;;;5052467;28;20036;-50
2021/01/01 02:59:57;;;;;;;11.98;10.75;;;21.50;31.30;;;;;;5053849;28;20020;-50
2021/01/01 03:02:23;;;;;;;14.02;11.85;;;21.50;31.30;;;;;;5046030;28;20033;-53
2021/01/01 03:04:49;;;;;;;12.20;10.77;;;21.40;31.20;;;;;;5050467;28;20464;-50
2021/01/01 03:07:14;;;;;;;13.32;11.05;;;21.50;31.30;;;;;;5052750;28;20083;-49
2021/01/01 03:09:40;;;;;;;13.35;11.60;;;21.50;31.30;;;;;;5053294;28;20083;-53
2021/01/01 03:12:06;;;;;;;13.10;11.27;;;21.50;31.90;;;;;;5042477;28;20037;-50
2021/01/01 03:14:32;;;;;;;14.63;12.20;;;21.50;31.20;;;;;;5041793;28;20029;-53
2021/01/01 03:16:57;;;;;;;14.52;12.05;;;21.40;31.20;;;;;;5043868;28;20076;-52
2021/01/01 03:19:23;;;;;;;13.77;11.57;;;21.40;31.20;;;;;;5041767;28;20028;-51
2021/01/01 03:21:49;;;;;;;14.00;12.23;;;21.40;31.20;;;;;;5044445;28;20432;-49
2021/01/01 03:24:14;;;;;;;14.43;12.68;;;21.40;31.20;;;;;;5054567;28;20056;-48
2021/01/01 03:26:40;;;;;;;14.70;13.20;;;21.40;31.20;;;;;;5043874;28;20033;-54
2021/01/01 03:29:06;;;;;;;15.50;13.50;;;21.40;31.20;;;;;;5053239;28;20082;-54
2021/01/01 03:31:32;;;;;;;15.27;13.30;;;21.40;31.30;;;;;;5027484;28;20037;-50
2021/01/01 03:33:58;;;;;;;15.27;13.05;;;21.40;31.20;;;;;;5054320;28;20044;-55
2021/01/01 03:36:24;;;;;;;15.38;13.27;;;21.40;31.30;;;;;;5046180;28;20417;-52
2021/01/01 03:38:52;;;;;;;15.43;13.45;;;21.40;31.30;;;;;;5040714;28;20074;-50
2021/01/01 03:41:18;;;;;;;16.67;13.77;;;21.40;31.30;;;;;;5030710;28;20384;-49
2021/01/01 03:43:44;;;;;;;14.55;12.55;;;21.40;31.30;;;;;;5049099;28;20036;-52
2021/01/01 03:46:10;;;;;;;15.15;13.57;;;21.40;31.30;;;;;;5048741;28;20095;-50
2021/01/01 03:48:36;;;;;;;16.63;13.90;;;21.40;31.30;;;;;;5030152;28;20099;-49
2021/01/01 03:51:01;;;;;;;15.70;13.50;;;21.30;31.30;;;;;;5047528;28;20017;-50
2021/01/01 03:53:27;;;;;;;14.82;13.10;;;21.30;31.40;;;;;;5053824;28;20155;-51
2021/01/01 03:55:53;;;;;;;15.25;13.57;;;21.30;31.50;;;;;;5050978;28;20025;-49
2021/01/01 03:58:19;;;;;;;15.93;13.80;;;21.30;31.50;;;;;;5034650;28;20116;-53
2021/01/01 04:00:44;;;;;;;15.57;13.85;;;21.30;31.50;;;;;;5050248;28;20041;-51
2021/01/01 04:03:10;;;;;;;16.15;14.43;;;21.30;32.10;;;;;;5054426;28;20453;-51
2021/01/01 04:05:36;;;;;;;16.90;15.10;;;21.30;31.50;;;;;;5047451;28;20125;-52
2021/01/01 04:08:02;;;;;;;17.48;14.57;;;21.30;31.50;;;;;;5034474;28;20107;-51
2021/01/01 04:10:27;;;;;;;16.55;14.60;;;21.30;31.50;;;;;;5046477;28;20029;-51
2021/01/01 04:12:53;;;;;;;16.40;14.70;;;21.30;31.50;;;;;;5051991;28;20067;-48
2021/01/01 04:15:19;;;;;;;17.67;15.75;;;21.30;31.50;;;;;;5052655;28;20461;-49
2021/01/01 04:17:45;;;;;;;18.58;15.57;;;21.30;31.60;;;;;;5041575;28;20065;-52
2021/01/01 04:20:11;;;;;;;17.23;15.43;;;21.20;31.60;;;;;;5044940;28;20436;-56
2021/01/01 04:22:36;;;;;;;17.98;16.08;;;21.30;31.60;;;;;;5053423;28;20118;-47
2021/01/01 04:25:03;;;;;;;19.90;16.17;;;21.20;31.50;;;;;;5054103;28;20456;-48
2021/01/01 04:27:29;;;;;;;19.55;16.65;;;21.20;31.50;;;;;;5054018;28;20053;-50
2021/01/01 04:29:54;;;;;;;18.88;16.67;;;21.20;31.40;;;;;;5052941;28;20092;-51
2021/01/01 04:32:20;;;;;;;18.88;16.38;;;21.20;31.40;;;;;;5056409;28;20037;-49
2021/01/01 04:34:46;;;;;;;19.10;16.73;;;21.20;31.40;;;;;;5057971;28;20048;-52
2021/01/01 04:37:12;;;;;;;18.60;16.63;;;21.20;31.40;;;;;;5043947;28;20039;-50
2021/01/01 04:39:38;;;;;;;19.13;16.98;;;21.30;31.40;;;;;;5058031;28;20036;-49
2021/01/01 04:42:05;;;;;;;20.23;17.55;;;21.20;31.40;;;;;;5042335;28;20042;-50
2021/01/01 04:44:31;;;;;;;20.08;17.88;;;21.20;31.40;;;;;;5043755;28;20052;-48
2021/01/01 04:46:59;;;;;;;18.52;16.55;;;21.20;31.30;;;;;;5037940;28;20033;-51
2021/01/01 04:49:27;;;;;;;19.20;17.10;;;21.20;31.40;;;;;;5046125;28;20116;-54
2021/01/01 04:51:54;;;;;;;20.38;18.05;;;21.20;31.30;;;;;;5037616;28;20043;-53
2021/01/01 04:54:26;;;;;;;20.42;17.90;;;21.20;31.30;;;;;;5048843;28;20116;-48
2021/01/01 04:56:52;;;;;;;21.42;18.85;;;21.20;31.30;;;;;;5052602;28;20080;-47
2021/01/01 04:59:18;;;;;;;21.38;19.08;;;21.10;31.30;;;;;;5041980;28;20041;-50
2021/01/01 05:01:45;;;;;;;20.92;18.73;;;21.20;31.30;;;;;;5040385;28;20041;-49
2021/01/01 05:04:11;;;;;;;23.05;19.35;;;21.10;31.30;;;;;;5057322;28;20065;-50
2021/01/01 05:06:39;;;;;;;21.27;18.58;;;21.10;31.30;;;;;;5056268;28;20091;-50
2021/01/01 05:09:06;;;;;;;20.90;17.98;;;21.10;31.30;;;;;;5041572;28;20330;-50
2021/01/01 05:11:32;;;;;;;23.00;19.25;;;21.10;31.30;;;;;;5037592;28;20356;-52
2021/01/01 05:13:59;;;;;;;20.67;17.83;;;21.10;31.30;;;;;;5051783;28;20048;-47
2021/01/01 05:16:25;;;;;;;20.60;18.40;;;21.10;31.40;;;;;;5057293;28;20041;-51
2021/01/01 05:18:52;;;;;;;19.90;17.77;;;21.10;31.40;;;;;;5055039;28;20029;-48
2021/01/01 05:21:22;;;;;;;20.65;18.25;;;21.10;31.40;;;;;;5056637;28;20064;-50
2021/01/01 05:23:55;;;;;;;20.40;17.58;;;21.10;31.40;;;;;;5044954;28;20064;-53
2021/01/01 05:26:28;;;;;;;18.70;16.65;;;21.10;31.40;;;;;;5056550;28;20073;-52
2021/01/01 05:28:54;;;;;;;19.05;16.83;;;21.10;31.50;;;;;;5052336;28;20029;-53
2021/01/01 05:31:21;;;;;;;20.05;17.30;;;21.10;31.50;;;;;;5050204;28;20046;-48
2021/01/01 05:34:01;;;;;;;20.15;17.33;;;21.10;31.50;;;;;;5048510;28;20108;-50
2021/01/01 05:36:34;;;;;;;20.05;17.75;;;21.10;31.50;;;;;;5049066;28;20336;-52
2021/01/01 05:39:03;;;;;;;19.35;16.77;;;21.00;31.40;;;;;;5056040;28;20029;-52
2021/01/01 05:41:39;;;;;;;19.27;17.27;;;21.00;31.40;;;;;;5041569;28;20048;-53
2021/01/01 05:44:08;;;;;;;20.67;17.80;;;21.10;31.50;;;;;;5056018;28;20036;-49
2021/01/01 05:46:34;;;;;;;19.27;17.27;;;21.00;31.50;;;;;;5056011;28;20043;-52
2021/01/01 05:49:01;;;;;;;20.40;18.20;;;21.00;31.50;;;;;;5055783;28;20033;-52
2021/01/01 05:51:27;;;;;;;19.35;17.30;;;21.00;31.50;;;;;;5049972;28;20091;-48
2021/01/01 05:54:11;;;;;;;19.17;17.05;;;21.00;31.50;;;;;;5048025;28;20021;-50
2021/01/01 05:56:40;;;;;;;21.77;17.65;;;21.00;31.50;;;;;;5037880;28;20116;-49
2021/01/01 05:59:13;;;;;;;21.17;17.27;;;21.00;31.50;;;;;;5049788;28;20025;-54
2021/01/01 06:01:42;;;;;;;20.13;17.73;;;21.00;31.50;;;;;;5055391;28;20037;-52
2021/01/01 06:04:09;;;;;;;20.08;17.17;;;21.00;31.60;;;;;;5033641;28;20037;-55
2021/01/01 06:06:36;;;;;;;20.23;16.95;;;21.00;31.60;;;;;;5040454;28;20353;-51
2021/01/01 06:09:06;;;;;;;19.48;17.38;;;21.00;31.60;;;;;;5048061;28;20036;-50
2021/01/01 06:11:37;;;;;;;19.17;16.85;;;20.90;31.60;;;;;;5056110;28;20048;-50
2021/01/01 06:14:06;;;;;;;18.85;16.85;;;20.90;31.60;;;;;;5036589;28;20146;-51
2021/01/01 06:16:45;;;;;;;19.17;16.70;;;20.90;31.60;;;;;;5038287;28;20345;-49
2021/01/01 06:19:12;;;;;;;21.17;18.73;;;20.90;31.60;;;;;;5044844;28;20049;-50
2021/01/01 06:21:44;;;;;;;18.92;16.90;;;20.90;31.60;;;;;;5035994;28;20069;-51
2021/01/01 06:24:18;;;;;;;19.25;17.15;;;20.90;31.50;;;;;;5048605;28;20529;-52
2021/01/01 06:26:44;;;;;;;21.58;18.00;;;20.90;31.60;;;;;;5037857;28;20595;-49
2021/01/01 06:29:15;;;;;;;18.38;16.48;;;20.90;31.60;;;;;;5054768;28;20079;-50
2021/01/01 06:31:44;;;;;;;20.13;17.08;;;20.90;31.70;;;;;;5051404;28;20025;-48
2021/01/01 06:34:29;;;;;;;20.23;17.85;;;20.90;31.70;;;;;;5053021;28;20025;-50
2021/01/01 06:36:56;;;;;;;19.63;17.20;;;20.90;31.70;;;;;;5046476;28;20115;-49
2021/01/01 06:39:42;;;;;;;19.30;17.15;;;20.90;31.70;;;;;;5043803;28;20029;-48
2021/01/01 06:42:09;;;;;;;20.83;16.25;;;20.80;31.60;;;;;;5044018;28;20033;-50
2021/01/01 06:44:42;;;;;;;19.77;17.67;;;20.80;31.60;;;;;;5053892;28;20037;-51
2021/01/01 06:47:10;;;;;;;18.75;16.77;;;20.80;31.60;;;;;;5050046;28;20041;-49
2021/01/01 06:49:39;;;;;;;18.45;16.45;;;20.80;31.60;;;;;;5054095;28;20466;-49
2021/01/01 06:52:17;;;;;;;21.02;17.25;;;20.80;31.60;;;;;;5035370;28;20044;-51
2021/01/01 06:54:53;;;;;;;19.58;17.33;;;20.80;31.60;;;;;;5040742;28;20088;-50
2021/01/01 06:57:19;;;;;;;19.40;17.17;;;20.80;31.60;;;;;;5041146;28;20054;-49
2021/01/01 06:59:45;;;;;;;19.50;16.45;;;20.80;31.70;;;;;;5053779;28;20333;-48
2021/01/01 07:02:29;;;;;;;20.88;18.25;;;20.80;31.80;;;;;;5054647;28;20033;-52
2021/01/01 07:04:56;;;;;;;20.45;17.30;;;20.80;31.80;;;;;;5036776;28;20106;-53
2021/01/01 07:07:42;;;;;;;18.48;16.45;;;20.80;31.80;;;;;;5047735;28;20025;-50
2021/01/01 07:10:32;;;;;;;17.98;15.80;;;20.80;31.80;;;;;;5052573;28;20112;-49
2021/01/01 07:13:17;;;;;;;19.08;16.50;;;20.80;31.80;;;;;;5048523;28;20048;-50
2021/01/01 07:15:43;;;;;;;17.90;15.95;;;20.70;31.80;;;;;;5054908;28;20068;-49
2021/01/01 07:18:09;;;;;;;19.27;17.17;;;20.80;31.90;;;;;;5045206;28;20068;-51
2021/01/01 07:20:39;;;;;;;19.35;16.88;;;20.80;31.90;;;;;;5017078;28;20340;-51
2021/01/01 07:23:06;;;;;;;17.73;15.88;;;20.80;32.00;;;;;;5047403;28;20025;-49
2021/01/01 07:25:39;;;;;;;18.05;15.82;;;20.70;32.00;;;;;;5054145;28;20116;-50
2021/01/01 07:28:09;;;;;;;21.73;18.00;;;20.70;32.00;;;;;;5049888;28;20065;-51
2021/01/01 07:30:35;;;;;;;19.17;16.05;;;20.70;32.00;;;;;;5054320;28;20036;-50
2021/01/01 07:33:02;;;;;;;20.45;17.13;;;20.70;32.00;;;;;;5034294;28;20095;-50
2021/01/01 07:35:29;;;;;;;21.42;17.40;;;20.70;32.00;;;;;;5034623;28;20041;-49
2021/01/01 07:37:55;;;;;;;20.95;17.00;;;20.70;32.60;;;;;;5047643;28;20037;-49
2021/01/01 07:40:21;;;;;;;20.05;17.48;;;20.70;31.90;;;;;;5049260;28;20039;-52
2021/01/01 07:42:48;;;;;;;19.73;17.63;;;20.70;31.90;;;;;;5052561;28;20344;-47
2021/01/01 07:45:14;;;;;;;21.15;18.17;;;20.70;32.00;;;;;;5053260;28;20163;-52
2021/01/01 07:47:48;;;;;;;22.25;18.40;;;20.70;32.00;;;;;;5052226;28;20029;-50
2021/01/01 07:50:15;;;;;;;23.92;19.25;;;20.70;32.00;;;;;;5042920;28;20055;-49
2021/01/01 07:52:41;;;;;;;25.38;18.55;;;20.70;32.00;;;;;;5039554;28;20036;-52
2021/01/01 07:55:08;;;;;;;24.90;19.42;;;20.70;32.00;;;;;;5038110;28;20041;-51
2021/01/01 07:57:36;;;;;;;22.95;18.92;;;20.70;32.00;;;;;;5039582;28;20033;-56
2021/01/01 08:00:09;;;;;;;22.50;19.13;;;20.60;31.90;;;;;;5044324;28;20037;-54
2021/01/01 08:02:41;;;;;;;20.77;16.65;;;20.70;32.30;;;;;;5053311;28;20040;-54
2021/01/01 08:05:13;;;;;;;19.90;16.70;;;20.70;32.60;;;;;;5055947;28;20025;-57
2021/01/01 08:07:39;;;;;;;19.70;15.55;;;20.70;32.90;;;;;;5047883;28;20411;-52
2021/01/01 08:10:06;;;;;;;20.67;16.52;;;20.70;33.00;;;;;;5052745;28;20128;-55
2021/01/01 08:12:32;;;;;;;22.27;15.38;;;20.80;33.20;;;;;;5038314;28;20053;-54
2021/01/01 08:14:58;;;;;;;20.15;15.75;;;20.80;33.20;;;;;;5053249;28;20145;-56
2021/01/01 08:17:29;;;;;;;19.88;15.95;;;20.80;33.20;;;;;;5044053;28;20040;-59
2021/01/01 08:19:58;;;;;;;19.10;15.95;;;20.90;33.20;;;;;;5054670;28;20021;-56
2021/01/01 08:22:31;;;;;;;20.42;16.25;;;20.80;33.10;;;;;;5053668;28;20037;-56
2021/01/01 08:24:58;;;;;;;22.30;16.63;;;20.90;33.10;;;;;;5042043;28;20484;-52
2021/01/01 08:27:26;;;;;;;22.48;17.30;;;20.90;32.90;;;;;;5056499;28;20028;-54
2021/01/01 08:29:54;;;;;;;21.63;16.45;;;20.90;32.90;;;;;;5051787;28;20036;-53
2021/01/01 08:32:21;;;;;;;23.25;17.75;;;21.00;32.90;;;;;;5048426;28;20029;-52
2021/01/01 08:34:51;;;;;;;22.08;17.02;;;21.00;32.80;;;;;;5048733;28;20033;-51
2021/01/01 08:37:18;;;;;;;22.48;17.60;;;21.00;32.70;;;;;;5051416;28;20029;-59
2021/01/01 08:39:45;;;;;;;22.98;17.33;;;21.00;32.60;;;;;;5038494;28;20041;-54
2021/01/01 08:42:22;;;;;;;24.00;18.40;;;21.00;32.50;;;;;;5040311;28;20041;-57
2021/01/01 08:44:48;;;;;;;23.65;19.10;;;21.10;32.20;;;;;;5049458;28;20107;-55
2021/01/01 08:47:14;;;;;;;25.83;21.17;;;21.10;31.70;;;;;;5037607;28;20120;-53
2021/01/01 08:49:40;;;;;;;25.83;20.77;;;21.10;31.30;;;;;;5056110;28;20033;-58
2021/01/01 08:52:11;;;;;;;28.75;22.65;;;21.10;31.00;;;;;;5041869;28;20075;-57
2021/01/01 08:54:37;;;;;;;25.58;20.23;;;21.20;30.90;;;;;;5046179;28;20028;-59
2021/01/01 08:57:04;;;;;;;26.77;19.85;;;21.20;30.80;;;;;;5047267;28;20120;-53
2021/01/01 08:59:30;;;;;;;24.40;19.48;;;21.30;30.80;;;;;;5042501;28;20029;-53
2021/01/01 09:01:59;;;;;;;24.02;19.95;;;21.30;30.70;;;;;;5045172;28;20033;-57
2021/01/01 09:04:28;;;;;;;25.52;20.55;;;21.40;30.60;;;;;;5047230;28;20364;-57
2021/01/01 09:06:59;;;;;;;24.67;19.75;;;21.40;30.40;;;;;;5045559;28;20491;-53
2021/01/01 09:09:31;;;;;;;26.90;20.67;;;21.50;30.90;;;;;;5043640;28;20036;-56
2021/01/01 09:12:16;;;;;;;24.50;19.70;;;21.60;30.10;;;;;;5042966;28;20060;-57
2021/01/01 09:14:45;;;;;;;25.70;20.05;;;21.70;30.00;;;;;;5046257;28;20359;-54
2021/01/01 09:17:12;;;;;;;24.35;20.20;;;21.70;29.90;;;;;;5050589;28;20029;-55
2021/01/01 09:19:38;;;;;;;24.42;19.90;;;21.80;29.80;;;;;;5025420;28;20396;-57
2021/01/01 09:22:12;;;;;;;23.35;19.27;;;21.90;29.60;;;;;;5009028;28;20090;-53
2021/01/01 09:24:39;;;;;;;23.63;19.38;;;22.00;29.50;;;;;;5026478;28;20072;-54
2021/01/01 09:27:05;;;;;;;20.20;17.08;;;22.00;29.40;;;;;;5043235;28;20039;-57
2021/01/01 09:29:31;;;;;;;22.58;17.58;;;22.10;29.30;;;;;;5042077;28;20055;-60
2021/01/01 09:31:58;;;;;;;21.05;17.25;;;22.20;29.30;;;;;;5049816;28;20021;-57
2021/01/01 09:34:24;;;;;;;18.60;15.35;;;22.20;29.20;;;;;;5053567;28;20395;-64
2021/01/01 09:36:50;;;;;;;17.52;14.70;;;22.30;29.20;;;;;;5051248;28;20032;-57
2021/01/01 09:39:16;;;;;;;16.90;13.88;;;22.30;29.30;;;;;;5048881;28;20032;-56
2021/01/01 09:41:49;;;;;;;17.48;14.85;;;22.40;29.50;;;;;;5050751;28;20596;-55
2021/01/01 09:44:15;;;;;;;16.30;13.73;;;22.40;29.50;;;;;;5028820;28;20103;-56
2021/01/01 09:46:44;;;;;;;17.27;14.13;;;22.50;29.60;;;;;;5050504;28;20072;-52
2021/01/01 09:49:11;;;;;;;16.70;13.68;;;22.60;29.70;;;;;;5042084;28;20090;-57
2021/01/01 09:51:39;;;;;;;18.80;14.13;;;22.60;29.70;;;;;;5045843;28;20447;-52
2021/01/01 09:54:05;;;;;;;16.70;13.57;;;22.70;29.80;;;;;;5023793;28;20029;-59
2021/01/01 09:56:32;;;;;;;18.60;13.73;;;22.70;29.80;;;;;;5045835;28;20025;-57
2021/01/01 09:58:58;;;;;;;17.63;13.82;;;22.80;29.80;;;;;;5040958;28;20060;-60
2021/01/01 10:01:26;;;;;;;15.73;12.13;;;22.90;29.80;;;;;;5044352;28;20080;-54
2021/01/01 10:03:52;;;;;;;16.90;12.80;;;22.90;29.90;;;;;;5042464;28;20028;-58
2021/01/01 10:06:18;;;;;;;16.48;12.65;;;23.00;29.90;;;;;;5044365;28;20021;-56
2021/01/01 10:08:45;;;;;;;14.20;11.98;;;23.00;29.80;;;;;;5045024;28;20097;-54
2021/01/01 10:11:15;;;;;;;13.55;11.40;;;23.10;29.90;;;;;;5042403;28;20032;-54
2021/01/01 10:13:41;;;;;;;16.33;12.30;;;23.20;29.90;;;;;;5043606;28;20045;-57
2021/01/01 10:16:11;;;;;;;14.55;12.18;;;23.20;29.80;;;;;;5045638;28;20482;-52
2021/01/01 10:18:39;;;;;;;13.98;11.15;;;23.30;29.80;;;;;;5042122;28;20025;-51
2021/01/01 10:21:05;;;;;;;13.70;11.25;;;23.30;29.80;;;;;;5044830;28;20052;-58
2021/01/01 10:23:31;;;;;;;14.75;11.43;;;23.40;29.80;;;;;;5023116;28;20037;-58
2021/01/01 10:25:57;;;;;;;12.20;10.52;;;23.40;29.80;;;;;;5043491;28;20132;-56
2021/01/01 10:28:23;;;;;;;14.15;11.07;;;23.40;29.80;;;;;;5042297;28;20100;-57
2021/01/01 10:30:48;;;;;;;12.93;10.55;;;23.40;29.80;;;;;;5043020;28;20041;-55
2021/01/01 10:33:15;;;;;;;12.85;10.30;;;23.50;29.90;;;;;;5046116;28;20430;-57
2021/01/01 10:35:41;;;;;;;14.73;11.05;;;23.50;29.90;;;;;;5043725;28;20046;-57
2021/01/01 10:38:06;;;;;;;12.30;10.40;;;23.50;29.90;;;;;;5043863;28;20029;-61
2021/01/01 10:40:32;;;;;;;12.80;10.55;;;23.50;29.80;;;;;;5043126;28;20099;-58
2021/01/01 10:42:58;;;;;;;13.52;10.80;;;23.50;29.80;;;;;;5038897;28;20048;-56
2021/01/01 10:45:24;;;;;;;12.38;10.05;;;23.60;29.90;;;;;;5043450;28;20432;-50
2021/01/01 10:47:50;;;;;;;14.75;11.13;;;23.60;30.00;;;;;;5043313;28;20417;-54
2021/01/01 10:50:16;;;;;;;13.70;11.15;;;23.60;30.00;;;;;;5039093;28;20049;-53
2021/01/01 10:52:42;;;;;;;12.77;10.10;;;23.60;30.00;;;;;;5039764;28;20029;-58
2021/01/01 10:55:08;;;;;;;13.88;11.20;;;23.60;30.20;;;;;;5045385;28;20025;-57
2021/01/01 10:57:34;;;;;;;11.55;9.50;;;23.70;30.40;;;;;;5040110;28;20025;-61
2021/01/01 11:00:00;;;;;;;12.63;9.88;;;23.80;30.50;;;;;;5042468;28;20036;-64
2021/01/01 11:02:26;;;;;;;13.27;9.85;;;23.90;30.60;;;;;;5045939;28;20321;-52
2021/01/01 11:04:52;;;;;;;12.73;10.15;;;24.00;30.50;;;;;;5044137;28;20309;-56
2021/01/01 11:07:17;;;;;;;10.57;9.48;;;24.20;30.60;;;;;;5025703;28;20056;-53
2021/01/01 11:09:43;;;;;;;12.68;9.95;;;24.30;30.70;;;;;;5039397;28;20043;-54
2021/01/01 11:12:09;;;;;;;11.98;9.23;;;24.40;30.60;;;;;;5043296;28;20021;-50
2021/01/01 12:20:52;;;;;;;7.70;6.40;;;25.80;29.70;;;;;;5043902;28;20036;-56
2021/01/01 12:26:03;;;;;;;7.63;6.10;;;25.80;29.90;;;;;;5047653;28;20120;-52
2021/01/01 12:28:33;;;;;;;7.68;6.40;;;25.90;30.00;;;;;;5045205;28;20029;-56
2021/01/01 12:31:00;;;;;;;8.93;6.55;;;25.90;30.10;;;;;;5044354;28;20025;-56
2021/01/01 12:33:26;;;;;;;6.90;6.10;;;25.90;30.20;;;;;;5043478;28;20099;-56
2021/01/01 12:35:52;;;;;;;7.55;6.18;;;25.90;30.40;;;;;;5046101;28;20079;-58
2021/01/01 12:38:18;;;;;;;7.43;6.38;;;25.90;30.40;;;;;;5039014;28;20021;-56
2021/01/01 12:40:44;;;;;;;8.23;6.28;;;25.90;30.40;;;;;;5022222;28;20029;-63
2021/01/01 12:43:10;;;;;;;7.28;6.13;;;26.00;30.70;;;;;;5045248;28;20108;-59
2021/01/01 12:45:35;;;;;;;8.25;6.32;;;26.00;30.90;;;;;;5043563;28;20112;-57
2021/01/01 12:48:01;;;;;;;9.23;6.57;;;26.00;31.10;;;;;;5047900;28;20022;-56
2021/01/01 12:50:27;;;;;;;7.38;6.40;;;26.00;31.10;;;;;;5047266;28;20476;-57
2021/01/01 12:52:54;;;;;;;6.45;5.43;;;26.10;31.00;;;;;;5024847;28;20067;-57
2021/01/01 12:55:20;;;;;;;7.47;5.90;;;26.10;30.90;;;;;;5047896;28;20098;-59
2021/01/01 12:57:46;;;;;;;6.53;5.55;;;26.10;30.90;;;;;;5022168;28;20086;-55
2021/01/01 13:00:13;;;;;;;5.78;5.18;;;26.10;30.70;;;;;;5047043;28;20029;-58
2021/01/01 13:02:38;;;;;;;7.10;6.00;;;26.10;30.70;;;;;;5041748;28;20462;-56
2021/01/01 13:05:05;;;;;;;10.88;6.05;;;26.10;30.60;;;;;;5043890;28;20118;-60
2021/01/01 13:07:31;;;;;;;8.50;5.97;;;26.10;30.40;;;;;;5025875;28;20294;-57
2021/01/01 13:09:58;;;;;;;7.28;6.03;;;26.10;30.50;;;;;;5044993;28;20047;-53
2021/01/01 13:12:24;;;;;;;7.30;5.35;;;26.10;30.50;;;;;;5027133;28;20444;-60
2021/01/01 13:14:50;;;;;;;7.40;5.60;;;26.20;30.60;;;;;;5039572;28;20021;-55
2021/01/01 13:17:16;;;;;;;7.00;5.50;;;26.20;30.60;;;;;;5045118;28;20490;-59
2021/01/01 13:19:41;;;;;;;6.72;5.38;;;26.20;30.50;;;;;;5031412;28;20462;-61
2021/01/01 13:22:07;;;;;;;7.78;5.80;;;26.20;30.50;;;;;;5043671;28;20045;-55
2021/01/01 13:24:33;;;;;;;6.57;4.57;;;26.20;30.30;;;;;;5043227;28;20081;-57
2021/01/01 13:26:58;;;;;;;9.07;5.32;;;26.20;30.40;;;;;;5043924;28;20060;-56
2021/01/01 13:29:24;;;;;;;7.40;5.45;;;26.20;30.70;;;;;;5043269;28;20037;-58
2021/01/01 13:31:50;;;;;;;6.95;5.05;;;26.20;30.70;;;;;;5045937;28;20025;-54
2021/01/01 13:34:16;;;;;;;7.68;5.55;;;26.20;30.40;;;;;;5046468;28;20032;-58
2021/01/01 13:36:42;;;;;;;7.93;5.22;;;26.20;30.70;;;;;;5044066;28;20170;-63
2021/01/01 13:39:09;;;;;;;8.73;4.95;;;26.20;30.80;;;;;;5045400;28;20040;-63
2021/01/01 13:41:38;;;;;;;8.15;5.43;;;26.30;30.90;;;;;;5044910;28;20589;-63